sensor_id;sensor_type;location;lat;lon;timestamp;P1;durP1;ratioP1;P2;durP2;ratioP2
11761;SDS011;5938;47.098;15.474;2023-03-13T00:01:41;9.87;;;5.60;;
11761;SDS011;5938;47.098;15.474;2023-03-13T00:05:47;6.47;;;5.80;;
11761;SDS011;5938;47.098;15.474;2023-03-13T00:09:51;8.00;;;5.20;;
11761;SDS011;5938;47.098;15.474;2023-03-13T00:13:55;6.40;;;4.93;;
11761;SDS011;5938;47.098;15.474;2023-03-13T00:18:00;8.07;;;5.60;;
11761;SDS011;5938;47.098;15.474;2023-03-13T00:22:04;9.90;;;5.63;;
11761;SDS011;5938;47.098;15.474;2023-03-13T00:26:08;6.47;;;5.27;;
11761;SDS011;5938;47.098;15.474;2023-03-13T00:30:13;6.97;;;5.53;;
11761;SDS011;5938;47.098;15.474;2023-03-13T00:34:18;6.97;;;6.07;;
11761;SDS011;5938;47.098;15.474;2023-03-13T00:38:23;12.27;;;7.10;;
11761;SDS011;5938;47.098;15.474;2023-03-13T00:42:27;8.27;;;5.20;;
11761;SDS011;5938;47.098;15.474;2023-03-13T00:46:30;8.63;;;5.10;;
11761;SDS011;5938;47.098;15.474;2023-03-13T00:50:36;8.10;;;5.50;;
11761;SDS011;5938;47.098;15.474;2023-03-13T00:54:39;6.00;;;5.30;;
11761;SDS011;5938;47.098;15.474;2023-03-13T00:58:44;5.67;;;4.23;;
11761;SDS011;5938;47.098;15.474;2023-03-13T01:02:49;6.70;;;4.17;;
11761;SDS011;5938;47.098;15.474;2023-03-13T01:06:54;7.70;;;5.30;;
11761;SDS011;5938;47.098;15.474;2023-03-13T01:10:58;4.97;;;4.00;;
11761;SDS011;5938;47.098;15.474;2023-03-13T01:15:03;7.87;;;6.33;;
11761;SDS011;5938;47.098;15.474;2023-03-13T01:19:07;6.60;;;4.70;;
11761;SDS011;5938;47.098;15.474;2023-03-13T01:23:15;6.73;;;4.53;;
11761;SDS011;5938;47.098;15.474;2023-03-13T01:27:19;7.83;;;5.27;;
11761;SDS011;5938;47.098;15.474;2023-03-13T01:31:23;5.80;;;5.30;;
11761;SDS011;5938;47.098;15.474;2023-03-13T01:35:29;7.63;;;5.50;;
11761;SDS011;5938;47.098;15.474;2023-03-13T01:39:34;7.60;;;5.23;;
11761;SDS011;5938;47.098;15.474;2023-03-13T01:43:38;7.87;;;5.47;;
11761;SDS011;5938;47.098;15.474;2023-03-13T01:47:41;8.07;;;5.80;;
11761;SDS011;5938;47.098;15.474;2023-03-13T01:51:49;5.50;;;4.23;;
11761;SDS011;5938;47.098;15.474;2023-03-13T01:55:57;8.50;;;5.80;;
11761;SDS011;5938;47.098;15.474;2023-03-13T02:00:03;6.13;;;5.53;;
11761;SDS011;5938;47.098;15.474;2023-03-13T02:04:11;7.77;;;4.60;;
11761;SDS011;5938;47.098;15.474;2023-03-13T02:08:17;6.27;;;4.60;;
11761;SDS011;5938;47.098;15.474;2023-03-13T02:12:26;5.90;;;4.20;;
11761;SDS011;5938;47.098;15.474;2023-03-13T02:16:33;6.97;;;4.83;;
11761;SDS011;5938;47.098;15.474;2023-03-13T02:20:39;10.50;;;3.97;;
11761;SDS011;5938;47.098;15.474;2023-03-13T02:29:01;10.67;;;5.50;;
11761;SDS011;5938;47.098;15.474;2023-03-13T02:33:05;6.70;;;4.53;;
11761;SDS011;5938;47.098;15.474;2023-03-13T02:37:09;8.20;;;5.47;;
11761;SDS011;5938;47.098;15.474;2023-03-13T02:41:14;8.50;;;5.17;;
11761;SDS011;5938;47.098;15.474;2023-03-13T02:45:20;9.80;;;5.47;;
11761;SDS011;5938;47.098;15.474;2023-03-13T02:49:24;10.63;;;5.83;;
11761;SDS011;5938;47.098;15.474;2023-03-13T02:53:30;7.97;;;4.90;;
11761;SDS011;5938;47.098;15.474;2023-03-13T02:57:35;9.60;;;5.73;;
11761;SDS011;5938;47.098;15.474;2023-03-13T03:01:42;8.07;;;6.57;;
11761;SDS011;5938;47.098;15.474;2023-03-13T03:05:46;5.23;;;4.53;;
11761;SDS011;5938;47.098;15.474;2023-03-13T03:09:49;8.17;;;5.27;;
11761;SDS011;5938;47.098;15.474;2023-03-13T03:14:00;12.63;;;4.50;;
11761;SDS011;5938;47.098;15.474;2023-03-13T03:18:05;7.00;;;4.30;;
11761;SDS011;5938;47.098;15.474;2023-03-13T03:22:09;8.20;;;4.80;;
11761;SDS011;5938;47.098;15.474;2023-03-13T03:26:12;7.20;;;4.13;;
11761;SDS011;5938;47.098;15.474;2023-03-13T03:30:17;6.30;;;4.47;;
11761;SDS011;5938;47.098;15.474;2023-03-13T03:34:22;5.43;;;4.70;;
11761;SDS011;5938;47.098;15.474;2023-03-13T03:38:26;5.93;;;4.10;;
11761;SDS011;5938;47.098;15.474;2023-03-13T03:42:30;7.23;;;4.13;;
11761;SDS011;5938;47.098;15.474;2023-03-13T03:46:34;6.33;;;4.50;;
11761;SDS011;5938;47.098;15.474;2023-03-13T03:50:39;4.33;;;3.90;;
11761;SDS011;5938;47.098;15.474;2023-03-13T03:54:42;7.97;;;3.93;;
11761;SDS011;5938;47.098;15.474;2023-03-13T03:58:46;6.10;;;4.73;;
11761;SDS011;5938;47.098;15.474;2023-03-13T04:02:50;6.63;;;4.67;;
11761;SDS011;5938;47.098;15.474;2023-03-13T04:06:55;5.37;;;3.97;;
11761;SDS011;5938;47.098;15.474;2023-03-13T04:10:58;5.70;;;4.63;;
11761;SDS011;5938;47.098;15.474;2023-03-13T04:15:03;5.80;;;4.47;;
11761;SDS011;5938;47.098;15.474;2023-03-13T04:19:08;6.23;;;4.60;;
11761;SDS011;5938;47.098;15.474;2023-03-13T04:23:13;6.00;;;5.00;;
11761;SDS011;5938;47.098;15.474;2023-03-13T04:27:16;6.63;;;4.17;;
11761;SDS011;5938;47.098;15.474;2023-03-13T04:31:20;4.63;;;4.10;;
11761;SDS011;5938;47.098;15.474;2023-03-13T04:35:25;10.00;;;3.80;;
11761;SDS011;5938;47.098;15.474;2023-03-13T04:39:30;6.60;;;3.80;;
11761;SDS011;5938;47.098;15.474;2023-03-13T04:43:34;6.60;;;3.83;;
11761;SDS011;5938;47.098;15.474;2023-03-13T04:47:37;5.50;;;4.80;;
11761;SDS011;5938;47.098;15.474;2023-03-13T04:51:41;5.30;;;3.90;;
11761;SDS011;5938;47.098;15.474;2023-03-13T04:55:48;6.67;;;4.10;;
11761;SDS011;5938;47.098;15.474;2023-03-13T04:59:52;7.17;;;4.57;;
11761;SDS011;5938;47.098;15.474;2023-03-13T05:03:56;5.87;;;4.30;;
11761;SDS011;5938;47.098;15.474;2023-03-13T05:08:00;7.70;;;4.80;;
11761;SDS011;5938;47.098;15.474;2023-03-13T05:12:07;7.60;;;5.33;;
11761;SDS011;5938;47.098;15.474;2023-03-13T05:16:12;8.43;;;4.97;;
11761;SDS011;5938;47.098;15.474;2023-03-13T05:20:16;6.73;;;5.10;;
11761;SDS011;5938;47.098;15.474;2023-03-13T05:24:20;7.07;;;4.43;;
11761;SDS011;5938;47.098;15.474;2023-03-13T05:28:25;10.20;;;5.47;;
11761;SDS011;5938;47.098;15.474;2023-03-13T05:32:29;8.30;;;4.87;;
11761;SDS011;5938;47.098;15.474;2023-03-13T05:36:33;15.70;;;7.57;;
11761;SDS011;5938;47.098;15.474;2023-03-13T05:40:36;16.40;;;7.30;;
11761;SDS011;5938;47.098;15.474;2023-03-13T05:44:41;10.83;;;5.90;;
11761;SDS011;5938;47.098;15.474;2023-03-13T05:48:45;12.77;;;6.80;;
11761;SDS011;5938;47.098;15.474;2023-03-13T05:52:50;11.10;;;5.60;;
11761;SDS011;5938;47.098;15.474;2023-03-13T05:56:53;8.67;;;6.17;;
11761;SDS011;5938;47.098;15.474;2023-03-13T06:00:58;6.60;;;4.40;;
11761;SDS011;5938;47.098;15.474;2023-03-13T06:05:07;14.03;;;6.33;;
11761;SDS011;5938;47.098;15.474;2023-03-13T06:09:12;10.50;;;6.83;;
11761;SDS011;5938;47.098;15.474;2023-03-13T06:13:16;9.47;;;7.53;;
11761;SDS011;5938;47.098;15.474;2023-03-13T06:17:22;8.70;;;6.80;;
11761;SDS011;5938;47.098;15.474;2023-03-13T06:21:27;8.97;;;7.27;;
11761;SDS011;5938;47.098;15.474;2023-03-13T06:25:31;9.00;;;6.20;;
11761;SDS011;5938;47.098;15.474;2023-03-13T06:29:36;18.60;;;12.87;;
11761;SDS011;5938;47.098;15.474;2023-03-13T06:33:41;14.50;;;10.47;;
11761;SDS011;5938;47.098;15.474;2023-03-13T06:37:45;9.93;;;6.40;;
11761;SDS011;5938;47.098;15.474;2023-03-13T06:41:49;9.37;;;5.90;;
11761;SDS011;5938;47.098;15.474;2023-03-13T06:45:52;11.07;;;6.10;;
11761;SDS011;5938;47.098;15.474;2023-03-13T06:49:58;9.63;;;6.50;;
11761;SDS011;5938;47.098;15.474;2023-03-13T06:54:01;6.90;;;4.97;;
11761;SDS011;5938;47.098;15.474;2023-03-13T06:58:05;4.30;;;3.90;;
11761;SDS011;5938;47.098;15.474;2023-03-13T07:02:22;7.27;;;4.90;;
11761;SDS011;5938;47.098;15.474;2023-03-13T07:06:27;5.93;;;5.17;;
11761;SDS011;5938;47.098;15.474;2023-03-13T07:10:31;11.00;;;4.50;;
11761;SDS011;5938;47.098;15.474;2023-03-13T07:14:37;6.37;;;4.90;;
11761;SDS011;5938;47.098;15.474;2023-03-13T07:18:41;6.17;;;4.80;;
11761;SDS011;5938;47.098;15.474;2023-03-13T07:22:51;8.30;;;5.17;;
11761;SDS011;5938;47.098;15.474;2023-03-13T07:26:55;7.50;;;4.87;;
11761;SDS011;5938;47.098;15.474;2023-03-13T07:31:09;8.17;;;4.37;;
11761;SDS011;5938;47.098;15.474;2023-03-13T07:35:15;4.47;;;4.07;;
11761;SDS011;5938;47.098;15.474;2023-03-13T07:39:20;6.50;;;4.40;;
11761;SDS011;5938;47.098;15.474;2023-03-13T07:43:24;4.53;;;3.77;;
11761;SDS011;5938;47.098;15.474;2023-03-13T07:47:28;5.83;;;4.63;;
11761;SDS011;5938;47.098;15.474;2023-03-13T07:51:32;8.17;;;5.20;;
11761;SDS011;5938;47.098;15.474;2023-03-13T07:55:51;31.03;;;18.40;;
11761;SDS011;5938;47.098;15.474;2023-03-13T07:59:56;13.03;;;9.47;;
11761;SDS011;5938;47.098;15.474;2023-03-13T08:03:59;8.70;;;4.50;;
11761;SDS011;5938;47.098;15.474;2023-03-13T08:08:04;5.40;;;4.40;;
11761;SDS011;5938;47.098;15.474;2023-03-13T08:12:10;4.53;;;4.13;;
11761;SDS011;5938;47.098;15.474;2023-03-13T08:16:14;16.07;;;6.80;;
11761;SDS011;5938;47.098;15.474;2023-03-13T08:20:19;5.77;;;4.93;;
11761;SDS011;5938;47.098;15.474;2023-03-13T08:24:23;5.03;;;3.77;;
11761;SDS011;5938;47.098;15.474;2023-03-13T08:28:32;7.07;;;4.40;;
11761;SDS011;5938;47.098;15.474;2023-03-13T08:32:35;7.17;;;4.40;;
11761;SDS011;5938;47.098;15.474;2023-03-13T08:36:40;4.87;;;4.20;;
11761;SDS011;5938;47.098;15.474;2023-03-13T08:40:44;6.87;;;4.87;;
11761;SDS011;5938;47.098;15.474;2023-03-13T08:44:50;6.10;;;4.87;;
11761;SDS011;5938;47.098;15.474;2023-03-13T08:48:53;5.70;;;4.40;;
11761;SDS011;5938;47.098;15.474;2023-03-13T08:52:57;7.27;;;5.00;;
11761;SDS011;5938;47.098;15.474;2023-03-13T08:57:01;5.43;;;4.47;;
11761;SDS011;5938;47.098;15.474;2023-03-13T09:01:07;5.73;;;5.03;;
11761;SDS011;5938;47.098;15.474;2023-03-13T09:05:14;6.27;;;5.10;;
11761;SDS011;5938;47.098;15.474;2023-03-13T09:09:18;9.67;;;4.57;;
11761;SDS011;5938;47.098;15.474;2023-03-13T09:13:24;6.97;;;4.50;;
11761;SDS011;5938;47.098;15.474;2023-03-13T09:17:30;6.83;;;4.47;;
11761;SDS011;5938;47.098;15.474;2023-03-13T09:21:34;5.40;;;4.37;;
11761;SDS011;5938;47.098;15.474;2023-03-13T09:25:38;5.80;;;4.53;;
11761;SDS011;5938;47.098;15.474;2023-03-13T09:29:42;6.30;;;4.40;;
11761;SDS011;5938;47.098;15.474;2023-03-13T09:33:47;5.23;;;4.60;;
11761;SDS011;5938;47.098;15.474;2023-03-13T09:37:52;6.17;;;4.93;;
11761;SDS011;5938;47.098;15.474;2023-03-13T09:41:57;7.63;;;5.43;;
11761;SDS011;5938;47.098;15.474;2023-03-13T09:46:10;6.33;;;4.80;;
11761;SDS011;5938;47.098;15.474;2023-03-13T09:50:22;12.30;;;6.30;;
11761;SDS011;5938;47.098;15.474;2023-03-13T09:54:31;7.10;;;5.00;;
11761;SDS011;5938;47.098;15.474;2023-03-13T09:58:40;7.67;;;5.87;;
11761;SDS011;5938;47.098;15.474;2023-03-13T10:02:53;6.77;;;5.40;;
11761;SDS011;5938;47.098;15.474;2023-03-13T10:07:00;6.50;;;4.70;;
11761;SDS011;5938;47.098;15.474;2023-03-13T10:11:06;7.83;;;5.97;;
11761;SDS011;5938;47.098;15.474;2023-03-13T10:15:20;7.67;;;5.80;;
11761;SDS011;5938;47.098;15.474;2023-03-13T10:19:38;6.10;;;5.50;;
11761;SDS011;5938;47.098;15.474;2023-03-13T10:23:47;5.70;;;5.20;;
11761;SDS011;5938;47.098;15.474;2023-03-13T10:27:55;7.43;;;5.50;;
11761;SDS011;5938;47.098;15.474;2023-03-13T10:31:59;5.97;;;5.00;;
11761;SDS011;5938;47.098;15.474;2023-03-13T10:36:05;6.93;;;5.37;;
11761;SDS011;5938;47.098;15.474;2023-03-13T10:40:13;8.83;;;4.90;;
11761;SDS011;5938;47.098;15.474;2023-03-13T10:44:29;7.03;;;5.37;;
11761;SDS011;5938;47.098;15.474;2023-03-13T10:48:35;10.00;;;5.90;;
11761;SDS011;5938;47.098;15.474;2023-03-13T10:52:40;6.30;;;5.33;;
11761;SDS011;5938;47.098;15.474;2023-03-13T10:56:47;5.93;;;5.30;;
11761;SDS011;5938;47.098;15.474;2023-03-13T11:00:51;6.37;;;5.77;;
11761;SDS011;5938;47.098;15.474;2023-03-13T11:05:29;5.80;;;5.10;;
11761;SDS011;5938;47.098;15.474;2023-03-13T11:09:40;5.77;;;5.23;;
11761;SDS011;5938;47.098;15.474;2023-03-13T11:13:45;10.93;;;4.43;;
11761;SDS011;5938;47.098;15.474;2023-03-13T11:17:50;4.63;;;4.23;;
11761;SDS011;5938;47.098;15.474;2023-03-13T11:22:14;6.07;;;5.50;;
11761;SDS011;5938;47.098;15.474;2023-03-13T11:26:31;5.90;;;5.10;;
11761;SDS011;5938;47.098;15.474;2023-03-13T11:30:46;7.23;;;5.73;;
11761;SDS011;5938;47.098;15.474;2023-03-13T11:34:58;5.57;;;5.00;;
11761;SDS011;5938;47.098;15.474;2023-03-13T11:39:09;6.37;;;5.33;;
11761;SDS011;5938;47.098;15.474;2023-03-13T11:43:39;5.40;;;4.90;;
11761;SDS011;5938;47.098;15.474;2023-03-13T11:47:58;5.60;;;5.00;;
11761;SDS011;5938;47.098;15.474;2023-03-13T11:52:19;4.57;;;4.17;;
11761;SDS011;5938;47.098;15.474;2023-03-13T11:56:34;5.97;;;4.97;;
11761;SDS011;5938;47.098;15.474;2023-03-13T12:00:44;4.97;;;4.57;;
11761;SDS011;5938;47.098;15.474;2023-03-13T12:04:54;8.33;;;4.50;;
11761;SDS011;5938;47.098;15.474;2023-03-13T12:09:04;4.67;;;4.27;;
11761;SDS011;5938;47.098;15.474;2023-03-13T12:13:15;4.93;;;4.53;;
11761;SDS011;5938;47.098;15.474;2023-03-13T12:17:23;5.50;;;5.00;;
11761;SDS011;5938;47.098;15.474;2023-03-13T12:21:36;9.40;;;5.13;;
11761;SDS011;5938;47.098;15.474;2023-03-13T12:25:50;7.63;;;4.30;;
11761;SDS011;5938;47.098;15.474;2023-03-13T12:29:59;4.13;;;3.80;;
11761;SDS011;5938;47.098;15.474;2023-03-13T12:34:09;6.67;;;4.63;;
11761;SDS011;5938;47.098;15.474;2023-03-13T12:38:23;5.90;;;5.33;;
11761;SDS011;5938;47.098;15.474;2023-03-13T12:42:36;4.70;;;4.30;;
11761;SDS011;5938;47.098;15.474;2023-03-13T12:46:45;8.47;;;4.90;;
11761;SDS011;5938;47.098;15.474;2023-03-13T12:50:58;5.30;;;4.70;;
11761;SDS011;5938;47.098;15.474;2023-03-13T12:59:53;5.93;;;5.30;;
11761;SDS011;5938;47.098;15.474;2023-03-13T13:04:00;7.10;;;5.00;;
11761;SDS011;5938;47.098;15.474;2023-03-13T13:08:20;5.37;;;4.87;;
11761;SDS011;5938;47.098;15.474;2023-03-13T13:12:26;5.60;;;4.40;;
11761;SDS011;5938;47.098;15.474;2023-03-13T13:16:33;4.53;;;3.90;;
11761;SDS011;5938;47.098;15.474;2023-03-13T13:20:38;6.10;;;4.43;;
11761;SDS011;5938;47.098;15.474;2023-03-13T13:24:48;4.83;;;4.23;;
11761;SDS011;5938;47.098;15.474;2023-03-13T13:28:52;3.93;;;3.23;;
11761;SDS011;5938;47.098;15.474;2023-03-13T13:32:57;3.13;;;2.93;;
11761;SDS011;5938;47.098;15.474;2023-03-13T13:37:42;4.40;;;4.00;;
11761;SDS011;5938;47.098;15.474;2023-03-13T13:41:49;3.53;;;3.23;;
11761;SDS011;5938;47.098;15.474;2023-03-13T13:45:56;3.63;;;3.33;;
11761;SDS011;5938;47.098;15.474;2023-03-13T13:50:18;3.20;;;3.00;;
11761;SDS011;5938;47.098;15.474;2023-03-13T13:54:51;3.20;;;2.90;;
11761;SDS011;5938;47.098;15.474;2023-03-13T13:58:58;5.07;;;3.47;;
11761;SDS011;5938;47.098;15.474;2023-03-13T14:03:10;3.50;;;2.63;;
11761;SDS011;5938;47.098;15.474;2023-03-13T14:07:24;6.10;;;3.37;;
11761;SDS011;5938;47.098;15.474;2023-03-13T14:11:32;2.93;;;2.73;;
11761;SDS011;5938;47.098;15.474;2023-03-13T14:15:40;3.40;;;3.00;;
11761;SDS011;5938;47.098;15.474;2023-03-13T14:19:47;3.23;;;3.00;;
11761;SDS011;5938;47.098;15.474;2023-03-13T14:23:53;4.00;;;3.43;;
11761;SDS011;5938;47.098;15.474;2023-03-13T14:27:56;4.30;;;3.20;;
11761;SDS011;5938;47.098;15.474;2023-03-13T14:32:00;6.23;;;3.40;;
11761;SDS011;5938;47.098;15.474;2023-03-13T14:36:04;6.27;;;3.57;;
11761;SDS011;5938;47.098;15.474;2023-03-13T14:40:15;3.73;;;3.17;;
11761;SDS011;5938;47.098;15.474;2023-03-13T14:44:23;5.00;;;4.50;;
11761;SDS011;5938;47.098;15.474;2023-03-13T14:48:31;7.30;;;4.67;;
11761;SDS011;5938;47.098;15.474;2023-03-13T14:52:36;4.80;;;3.57;;
11761;SDS011;5938;47.098;15.474;2023-03-13T14:56:47;11.90;;;5.10;;
11761;SDS011;5938;47.098;15.474;2023-03-13T15:00:51;4.40;;;3.43;;
11761;SDS011;5938;47.098;15.474;2023-03-13T15:04:56;5.53;;;3.17;;
11761;SDS011;5938;47.098;15.474;2023-03-13T15:09:15;6.40;;;3.77;;
11761;SDS011;5938;47.098;15.474;2023-03-13T15:13:23;4.83;;;3.90;;
11761;SDS011;5938;47.098;15.474;2023-03-13T15:17:30;4.60;;;3.83;;
11761;SDS011;5938;47.098;15.474;2023-03-13T15:21:34;4.90;;;3.30;;
11761;SDS011;5938;47.098;15.474;2023-03-13T15:25:39;4.70;;;3.60;;
11761;SDS011;5938;47.098;15.474;2023-03-13T15:29:44;4.40;;;3.27;;
11761;SDS011;5938;47.098;15.474;2023-03-13T15:33:49;6.23;;;3.80;;
11761;SDS011;5938;47.098;15.474;2023-03-13T15:37:58;3.20;;;2.90;;
11761;SDS011;5938;47.098;15.474;2023-03-13T15:42:03;3.43;;;3.13;;
11761;SDS011;5938;47.098;15.474;2023-03-13T15:46:10;7.13;;;3.57;;
11761;SDS011;5938;47.098;15.474;2023-03-13T15:50:16;5.03;;;3.80;;
11761;SDS011;5938;47.098;15.474;2023-03-13T15:54:22;3.93;;;3.53;;
11761;SDS011;5938;47.098;15.474;2023-03-13T15:58:27;5.50;;;3.30;;
11761;SDS011;5938;47.098;15.474;2023-03-13T16:02:32;7.10;;;3.20;;
11761;SDS011;5938;47.098;15.474;2023-03-13T16:06:36;3.13;;;2.90;;
11761;SDS011;5938;47.098;15.474;2023-03-13T16:10:40;3.33;;;3.03;;
11761;SDS011;5938;47.098;15.474;2023-03-13T16:14:44;3.53;;;2.47;;
11761;SDS011;5938;47.098;15.474;2023-03-13T16:18:49;6.50;;;2.67;;
11761;SDS011;5938;47.098;15.474;2023-03-13T16:22:54;4.10;;;2.93;;
11761;SDS011;5938;47.098;15.474;2023-03-13T16:26:58;4.37;;;3.10;;
11761;SDS011;5938;47.098;15.474;2023-03-13T16:31:02;7.00;;;3.43;;
11761;SDS011;5938;47.098;15.474;2023-03-13T16:35:09;10.20;;;3.87;;
11761;SDS011;5938;47.098;15.474;2023-03-13T16:39:14;5.43;;;3.37;;
11761;SDS011;5938;47.098;15.474;2023-03-13T16:43:19;3.80;;;3.10;;
11761;SDS011;5938;47.098;15.474;2023-03-13T16:47:24;8.63;;;4.10;;
11761;SDS011;5938;47.098;15.474;2023-03-13T16:51:37;7.07;;;4.47;;
11761;SDS011;5938;47.098;15.474;2023-03-13T16:55:41;9.20;;;3.90;;
11761;SDS011;5938;47.098;15.474;2023-03-13T16:59:46;12.00;;;3.60;;
11761;SDS011;5938;47.098;15.474;2023-03-13T17:03:52;4.00;;;3.60;;
11761;SDS011;5938;47.098;15.474;2023-03-13T17:07:58;6.97;;;4.10;;
11761;SDS011;5938;47.098;15.474;2023-03-13T17:12:02;10.50;;;4.13;;
11761;SDS011;5938;47.098;15.474;2023-03-13T17:16:11;4.97;;;3.90;;
11761;SDS011;5938;47.098;15.474;2023-03-13T17:20:18;5.70;;;4.20;;
11761;SDS011;5938;47.098;15.474;2023-03-13T17:24:27;9.30;;;3.60;;
11761;SDS011;5938;47.098;15.474;2023-03-13T17:28:33;11.43;;;4.20;;
11761;SDS011;5938;47.098;15.474;2023-03-13T17:32:37;6.83;;;3.60;;
11761;SDS011;5938;47.098;15.474;2023-03-13T17:36:44;6.30;;;4.50;;
11761;SDS011;5938;47.098;15.474;2023-03-13T17:40:51;6.50;;;5.00;;
11761;SDS011;5938;47.098;15.474;2023-03-13T17:44:56;7.13;;;4.70;;
11761;SDS011;5938;47.098;15.474;2023-03-13T17:49:01;8.90;;;5.07;;
11761;SDS011;5938;47.098;15.474;2023-03-13T17:53:07;11.63;;;5.87;;
11761;SDS011;5938;47.098;15.474;2023-03-13T17:57:14;7.40;;;4.43;;
11761;SDS011;5938;47.098;15.474;2023-03-13T18:01:20;8.03;;;6.20;;
11761;SDS011;5938;47.098;15.474;2023-03-13T18:05:26;10.63;;;8.13;;
11761;SDS011;5938;47.098;15.474;2023-03-13T18:09:30;10.07;;;7.40;;
11761;SDS011;5938;47.098;15.474;2023-03-13T18:13:36;11.00;;;9.70;;
11761;SDS011;5938;47.098;15.474;2023-03-13T18:17:40;12.80;;;10.33;;
11761;SDS011;5938;47.098;15.474;2023-03-13T18:21:45;11.57;;;10.23;;
11761;SDS011;5938;47.098;15.474;2023-03-13T18:25:51;10.27;;;8.70;;
11761;SDS011;5938;47.098;15.474;2023-03-13T18:30:01;12.20;;;10.97;;
11761;SDS011;5938;47.098;15.474;2023-03-13T18:34:05;10.87;;;8.07;;
11761;SDS011;5938;47.098;15.474;2023-03-13T18:38:10;9.93;;;7.23;;
11761;SDS011;5938;47.098;15.474;2023-03-13T18:42:16;19.73;;;10.83;;
11761;SDS011;5938;47.098;15.474;2023-03-13T18:46:24;11.43;;;8.57;;
11761;SDS011;5938;47.098;15.474;2023-03-13T18:50:31;16.03;;;10.43;;
11761;SDS011;5938;47.098;15.474;2023-03-13T18:54:37;23.97;;;10.93;;
11761;SDS011;5938;47.098;15.474;2023-03-13T18:58:42;16.70;;;9.73;;
11761;SDS011;5938;47.098;15.474;2023-03-13T19:02:52;14.93;;;8.77;;
11761;SDS011;5938;47.098;15.474;2023-03-13T19:06:57;14.23;;;9.17;;
11761;SDS011;5938;47.098;15.474;2023-03-13T19:11:02;13.70;;;9.17;;
11761;SDS011;5938;47.098;15.474;2023-03-13T19:15:10;17.57;;;9.90;;
11761;SDS011;5938;47.098;15.474;2023-03-13T19:19:30;9.90;;;8.90;;
11761;SDS011;5938;47.098;15.474;2023-03-13T19:28:28;9.67;;;8.10;;
11761;SDS011;5938;47.098;15.474;2023-03-13T20:05:41;14.33;;;10.30;;
11761;SDS011;5938;47.098;15.474;2023-03-13T20:09:47;14.10;;;10.00;;
11761;SDS011;5938;47.098;15.474;2023-03-13T20:13:53;12.30;;;9.13;;
11761;SDS011;5938;47.098;15.474;2023-03-13T20:18:01;22.60;;;12.07;;
11761;SDS011;5938;47.098;15.474;2023-03-13T20:22:07;13.57;;;11.00;;
11761;SDS011;5938;47.098;15.474;2023-03-13T20:26:13;20.90;;;11.33;;
11761;SDS011;5938;47.098;15.474;2023-03-13T20:30:28;19.77;;;13.20;;
11761;SDS011;5938;47.098;15.474;2023-03-13T20:34:36;14.80;;;10.40;;
11761;SDS011;5938;47.098;15.474;2023-03-13T20:38:44;11.47;;;9.57;;
11761;SDS011;5938;47.098;15.474;2023-03-13T20:43:15;13.33;;;9.70;;
11761;SDS011;5938;47.098;15.474;2023-03-13T20:47:21;13.33;;;9.70;;
11761;SDS011;5938;47.098;15.474;2023-03-13T20:51:28;10.07;;;8.83;;
11761;SDS011;5938;47.098;15.474;2023-03-13T20:55:35;13.43;;;9.80;;
11761;SDS011;5938;47.098;15.474;2023-03-13T20:59:41;10.60;;;8.80;;
11761;SDS011;5938;47.098;15.474;2023-03-13T21:03:46;11.37;;;8.63;;
11761;SDS011;5938;47.098;15.474;2023-03-13T21:07:53;12.67;;;9.00;;
11761;SDS011;5938;47.098;15.474;2023-03-13T21:11:58;12.03;;;8.00;;
11761;SDS011;5938;47.098;15.474;2023-03-13T21:16:03;10.13;;;8.13;;
11761;SDS011;5938;47.098;15.474;2023-03-13T21:20:08;12.23;;;8.40;;
11761;SDS011;5938;47.098;15.474;2023-03-13T21:24:15;8.57;;;7.33;;
11761;SDS011;5938;47.098;15.474;2023-03-13T21:28:22;8.53;;;7.63;;
11761;SDS011;5938;47.098;15.474;2023-03-13T21:32:26;11.77;;;7.47;;
11761;SDS011;5938;47.098;15.474;2023-03-13T21:36:31;12.60;;;8.00;;
11761;SDS011;5938;47.098;15.474;2023-03-13T21:40:37;8.97;;;7.57;;
11761;SDS011;5938;47.098;15.474;2023-03-13T21:44:41;10.70;;;8.63;;
11761;SDS011;5938;47.098;15.474;2023-03-13T21:48:45;11.47;;;8.70;;
11761;SDS011;5938;47.098;15.474;2023-03-13T21:52:49;10.77;;;7.53;;
11761;SDS011;5938;47.098;15.474;2023-03-13T21:56:54;10.87;;;7.93;;
11761;SDS011;5938;47.098;15.474;2023-03-13T22:00:58;10.23;;;8.00;;
11761;SDS011;5938;47.098;15.474;2023-03-13T22:05:02;7.70;;;6.83;;
11761;SDS011;5938;47.098;15.474;2023-03-13T22:09:07;15.80;;;9.60;;
11761;SDS011;5938;47.098;15.474;2023-03-13T22:13:12;22.00;;;10.47;;
11761;SDS011;5938;47.098;15.474;2023-03-13T22:17:15;19.07;;;10.27;;
11761;SDS011;5938;47.098;15.474;2023-03-13T22:21:20;15.93;;;8.80;;
11761;SDS011;5938;47.098;15.474;2023-03-13T22:25:24;14.33;;;8.90;;
11761;SDS011;5938;47.098;15.474;2023-03-13T22:29:29;15.03;;;9.23;;
11761;SDS011;5938;47.098;15.474;2023-03-13T22:33:34;11.63;;;10.10;;
11761;SDS011;5938;47.098;15.474;2023-03-13T22:37:38;13.63;;;9.30;;
11761;SDS011;5938;47.098;15.474;2023-03-13T22:41:42;18.50;;;7.90;;
11761;SDS011;5938;47.098;15.474;2023-03-13T22:45:47;15.03;;;8.27;;
11761;SDS011;5938;47.098;15.474;2023-03-13T22:49:51;10.10;;;7.03;;
11761;SDS011;5938;47.098;15.474;2023-03-13T22:53:55;14.60;;;7.77;;
11761;SDS011;5938;47.098;15.474;2023-03-13T22:58:07;13.60;;;8.50;;
11761;SDS011;5938;47.098;15.474;2023-03-13T23:02:11;8.87;;;6.73;;
11761;SDS011;5938;47.098;15.474;2023-03-13T23:06:17;8.30;;;6.50;;
11761;SDS011;5938;47.098;15.474;2023-03-13T23:10:22;10.67;;;7.10;;
11761;SDS011;5938;47.098;15.474;2023-03-13T23:14:25;8.93;;;6.07;;
11761;SDS011;5938;47.098;15.474;2023-03-13T23:18:31;10.53;;;6.77;;
11761;SDS011;5938;47.098;15.474;2023-03-13T23:22:35;10.27;;;6.90;;
11761;SDS011;5938;47.098;15.474;2023-03-13T23:26:38;9.20;;;5.90;;
11761;SDS011;5938;47.098;15.474;2023-03-13T23:30:42;10.07;;;5.90;;
11761;SDS011;5938;47.098;15.474;2023-03-13T23:34:47;22.37;;;7.00;;
11761;SDS011;5938;47.098;15.474;2023-03-13T23:38:52;8.03;;;6.70;;
11761;SDS011;5938;47.098;15.474;2023-03-13T23:42:58;9.87;;;7.10;;
11761;SDS011;5938;47.098;15.474;2023-03-13T23:47:01;10.53;;;5.63;;
11761;SDS011;5938;47.098;15.474;2023-03-13T23:51:07;7.53;;;5.67;;
11761;SDS011;5938;47.098;15.474;2023-03-13T23:55:11;8.27;;;6.20;;
11761;SDS011;5938;47.098;15.474;2023-03-13T23:59:14;7.27;;;6.23;;
